createdAt,value
2019-02-18T00:01:52.606Z,99548.63
2019-02-18T00:04:22.928Z,99548.07
2019-02-18T00:06:53.213Z,99544.50
2019-02-18T00:09:23.440Z,99556.59
2019-02-18T00:11:53.629Z,99546.92
2019-02-18T00:14:23.861Z,99545.95
2019-02-18T00:16:54.167Z,99542.68
2019-02-18T00:19:24.462Z,99540.14
2019-02-18T00:21:54.862Z,99541.66
2019-02-18T00:24:25.134Z,99537.19
2019-02-18T00:26:56.283Z,99536.59
2019-02-18T00:29:26.500Z,99532.18
2019-02-18T00:31:56.819Z,99538.51
2019-02-18T00:34:27.136Z,99539.91
2019-02-18T00:36:57.350Z,99539.88
2019-02-18T00:39:27.565Z,99538.18
2019-02-18T00:41:57.908Z,99538.34
2019-02-18T00:44:28.146Z,99540.22
2019-02-18T00:46:58.400Z,99539.24
2019-02-18T00:49:28.636Z,99538.00
2019-02-18T00:51:58.896Z,99531.07
2019-02-18T00:54:29.160Z,99529.42
2019-02-18T00:56:59.431Z,99523.76
2019-02-18T00:59:29.613Z,99526.41
2019-02-18T01:02:00.230Z,99528.09
2019-02-18T01:04:30.470Z,99524.78
2019-02-18T01:07:00.715Z,99532.19
2019-02-18T01:09:30.986Z,99529.84
2019-02-18T01:12:01.177Z,99524.58
2019-02-18T01:14:31.378Z,99522.66
2019-02-18T01:17:01.813Z,99527.38
2019-02-18T01:19:32.162Z,99523.08
2019-02-18T01:22:02.389Z,99521.13
2019-02-18T01:24:32.638Z,99526.61
2019-02-18T01:27:02.828Z,99521.89
2019-02-18T01:29:33.147Z,99524.36
2019-02-18T01:32:03.340Z,99519.64
2019-02-18T01:34:33.627Z,99521.39
2019-02-18T01:37:03.965Z,99512.89
2019-02-18T01:39:34.207Z,99516.02
2019-02-18T01:42:04.429Z,99517.67
2019-02-18T01:44:34.655Z,99507.83
2019-02-18T01:47:04.908Z,99502.85
2019-02-18T01:49:35.150Z,99511.78
2019-02-18T01:52:05.452Z,99503.28
2019-02-18T01:54:35.659Z,99502.09
2019-02-18T01:57:06.065Z,99504.89
2019-02-18T01:59:36.267Z,99501.53
2019-02-18T02:02:06.814Z,99504.00
2019-02-18T02:04:37.106Z,99499.70
2019-02-18T02:07:07.310Z,99504.74
2019-02-18T02:09:37.498Z,99494.61
2019-02-18T02:12:07.739Z,99497.89
2019-02-18T02:14:38.095Z,99493.88
2019-02-18T02:17:08.318Z,99493.11
2019-02-18T02:19:38.519Z,99490.52
2019-02-18T02:22:08.710Z,99489.84
2019-02-18T02:24:39.012Z,99496.48
2019-02-18T02:27:09.230Z,99491.48
2019-02-18T02:29:39.478Z,99488.50
2019-02-18T02:32:09.681Z,99481.34
2019-02-18T02:34:40.015Z,99478.64
2019-02-18T02:37:10.263Z,99472.75
2019-02-18T02:39:40.489Z,99465.32
2019-02-18T02:42:10.716Z,99467.59
2019-02-18T02:44:40.921Z,99460.17
2019-02-18T02:47:11.227Z,99466.55
2019-02-18T02:49:41.446Z,99457.53
2019-02-18T02:52:11.838Z,99455.66
2019-02-18T02:54:42.100Z,99458.95
2019-02-18T02:57:12.303Z,99456.69
2019-02-18T02:59:42.571Z,99450.50
2019-02-18T03:02:12.978Z,99450.66
2019-02-18T03:04:43.286Z,99450.21
2019-02-18T03:07:13.477Z,99452.80
2019-02-18T03:09:43.755Z,99454.87
2019-02-18T03:12:14.014Z,99447.22
2019-02-18T03:14:44.208Z,99448.63
2019-02-18T03:17:14.489Z,99451.07
2019-02-18T03:19:44.741Z,99442.42
2019-02-18T03:22:15.010Z,99448.95
2019-02-18T03:25:22.122Z,99445.56
2019-02-18T03:28:12.799Z,99443.59
2019-02-18T03:31:09.340Z,99442.81
2019-02-18T03:33:49.126Z,99442.63
2019-02-18T03:36:19.413Z,99442.26
2019-02-18T03:38:49.594Z,99440.64
2019-02-18T03:41:19.819Z,99444.30
2019-02-18T03:43:50.051Z,99438.52
2019-02-18T03:46:20.232Z,99435.53
2019-02-18T03:48:50.453Z,99440.28
2019-02-18T03:51:20.693Z,99438.48
2019-02-18T03:53:51.005Z,99438.11
2019-02-18T03:56:21.207Z,99446.56
2019-02-18T03:58:51.409Z,99436.39
2019-02-18T04:01:21.660Z,99442.25
2019-02-18T04:03:52.315Z,99436.50
2019-02-18T04:06:22.717Z,99443.32
2019-02-18T04:08:52.903Z,99437.30
2019-02-18T04:11:23.142Z,99438.20
2019-02-18T04:13:53.410Z,99440.59
2019-02-18T04:16:23.588Z,99432.34
2019-02-18T04:18:53.805Z,99434.92
2019-02-18T04:21:24.025Z,99434.41
2019-02-18T04:23:54.299Z,99436.95
2019-02-18T04:26:24.681Z,99434.73
2019-02-18T04:28:54.874Z,99433.05
2019-02-18T04:31:25.093Z,99427.84
2019-02-18T04:33:55.765Z,99431.31
2019-02-18T04:36:26.141Z,99425.91
2019-02-18T04:38:56.364Z,99436.92
2019-02-18T04:41:26.621Z,99421.77
2019-02-18T04:43:56.855Z,99431.11
2019-02-18T04:46:27.181Z,99426.67
2019-02-18T04:48:57.404Z,99423.27
2019-02-18T04:51:27.624Z,99420.31
2019-02-18T04:53:57.828Z,99418.62
2019-02-18T04:56:28.020Z,99414.63
2019-02-18T04:58:59.377Z,99418.38
2019-02-18T05:01:29.674Z,99413.70
2019-02-18T05:04:00.147Z,99415.58
2019-02-18T05:06:30.455Z,99423.36
2019-02-18T05:09:05.207Z,99416.50
2019-02-18T05:11:32.938Z,99412.66
2019-02-18T05:14:03.208Z,99414.72
2019-02-18T05:16:33.368Z,99421.63
2019-02-18T05:19:03.830Z,99410.30
2019-02-18T05:21:34.074Z,99413.60
2019-02-18T05:24:04.393Z,99421.83
2019-02-18T05:26:34.712Z,99411.11
2019-02-18T05:29:04.945Z,99416.52
2019-02-18T05:31:35.228Z,99416.88
2019-02-18T05:34:05.417Z,99407.44
2019-02-18T05:36:35.791Z,99413.50
2019-02-18T05:39:17.408Z,99412.50
2019-02-18T05:41:39.786Z,99413.63
2019-02-18T05:44:10.016Z,99416.50
2019-02-18T05:46:40.277Z,99417.06
2019-02-18T05:49:10.487Z,99408.99
2019-02-18T05:51:40.763Z,99412.19
2019-02-18T05:54:11.059Z,99416.95
2019-02-18T05:56:41.535Z,99418.38
2019-02-18T05:59:11.748Z,99417.41
2019-02-18T06:01:42.065Z,99422.40
2019-02-18T06:04:12.464Z,99424.17
2019-02-18T06:06:42.686Z,99428.05
2019-02-18T06:09:12.917Z,99430.28
2019-02-18T06:11:43.175Z,99431.75
2019-02-18T06:14:13.485Z,99439.48
2019-02-18T06:16:44.037Z,99439.80
2019-02-18T06:19:14.306Z,99442.19
2019-02-18T06:21:44.568Z,99439.23
2019-02-18T06:24:14.800Z,99445.41
2019-02-18T06:26:49.622Z,99438.54
2019-02-18T06:29:23.025Z,99445.54
2019-02-18T06:31:55.300Z,99440.16
2019-02-18T06:34:28.800Z,99450.55
2019-02-18T06:36:59.243Z,99443.50
2019-02-18T06:39:40.886Z,99450.16
2019-02-18T06:42:02.902Z,99458.22
2019-02-18T06:44:39.740Z,99456.59
2019-02-18T06:47:14.360Z,99462.28
2019-02-18T06:49:47.323Z,99455.30
2019-02-18T06:52:17.851Z,99459.44
2019-02-18T06:54:49.320Z,99458.03
2019-02-18T06:57:26.979Z,99453.44
2019-02-18T07:00:12.348Z,99455.10
2019-02-18T07:03:19.235Z,99453.34
2019-02-18T07:06:17.232Z,99456.33
2019-02-18T07:09:04.488Z,99457.84
2019-02-18T07:11:55.624Z,99460.17
2019-02-18T07:14:26.065Z,99462.91
2019-02-18T07:16:57.556Z,99464.42
2019-02-18T07:19:28.037Z,99455.73
2019-02-18T07:21:58.302Z,99461.28
2019-02-18T07:24:28.555Z,99461.78
2019-02-18T07:27:02.066Z,99464.55
2019-02-18T07:29:34.144Z,99460.39
2019-02-18T07:32:07.973Z,99462.91
2019-02-18T07:34:38.459Z,99459.64
2019-02-18T07:37:08.757Z,99458.50
2019-02-18T07:39:39.133Z,99461.48
2019-02-18T07:42:09.357Z,99453.42
2019-02-18T07:44:39.576Z,99451.81
2019-02-18T07:47:11.893Z,99452.98
2019-02-18T07:49:44.429Z,99453.02
2019-02-18T07:52:15.176Z,99445.52
2019-02-18T07:54:48.206Z,99446.14
2019-02-18T07:57:18.628Z,99451.33
2019-02-18T07:59:51.491Z,99444.58
2019-02-18T08:02:21.894Z,99438.30
2019-02-18T08:04:52.155Z,99440.06
2019-02-18T08:07:22.685Z,99439.09
2019-02-18T08:09:52.986Z,99440.23
2019-02-18T08:12:23.303Z,99429.58
2019-02-18T08:14:53.477Z,99429.97
2019-02-18T08:17:23.780Z,99430.45
2019-02-18T08:19:54.050Z,99424.31
2019-02-18T08:22:24.261Z,99430.14
2019-02-18T08:24:54.510Z,99425.40
2019-02-18T08:27:24.910Z,99424.24
2019-02-18T08:29:56.092Z,99420.05
2019-02-18T08:32:26.460Z,99423.93
2019-02-18T08:34:56.830Z,99414.89
2019-02-18T08:37:27.391Z,99420.33
2019-02-18T08:39:57.968Z,99410.36
2019-02-18T08:42:28.850Z,99414.88
2019-02-18T08:44:59.085Z,99414.31
2019-02-18T08:47:29.734Z,99418.14
2019-02-18T08:49:59.936Z,99410.87
2019-02-18T08:52:30.204Z,99411.04
2019-02-18T08:55:00.484Z,99401.19
2019-02-18T08:57:30.703Z,99401.78
2019-02-18T09:00:00.988Z,99405.94
2019-02-18T09:02:32.327Z,99404.61
2019-02-18T09:05:02.775Z,99409.86
2019-02-18T09:07:33.413Z,99397.16
2019-02-18T09:10:03.723Z,99404.56
2019-02-18T09:12:34.043Z,99403.16
2019-02-18T09:15:04.716Z,99406.20
2019-02-18T09:17:35.267Z,99399.00
2019-02-18T09:20:06.172Z,99398.55
2019-02-18T09:22:58.394Z,99400.10
2019-02-18T09:25:36.739Z,99403.77
2019-02-18T09:28:07.020Z,99391.16
2019-02-18T09:30:39.336Z,99402.79
2019-02-18T09:33:09.962Z,99398.25
2019-02-18T09:35:40.280Z,99388.66
2019-02-18T09:38:10.572Z,99390.21
2019-02-18T09:40:50.722Z,99397.52
2019-02-18T09:43:22.270Z,99385.41
2019-02-18T09:45:52.494Z,99388.43
2019-02-18T09:48:22.792Z,99385.20
2019-02-18T09:50:53.497Z,99382.09
2019-02-18T09:53:23.717Z,99387.79
2019-02-18T09:55:55.797Z,99390.89
2019-02-18T09:58:26.038Z,99384.27
2019-02-18T10:00:56.306Z,99388.64
2019-02-18T10:03:31.914Z,99385.25
2019-02-18T10:05:58.534Z,99379.97
2019-02-18T10:08:29.060Z,99380.38
2019-02-18T10:10:59.715Z,99380.34
2019-02-18T10:13:29.981Z,99378.45
2019-02-18T10:16:00.248Z,99384.36
2019-02-18T10:18:32.181Z,99370.78
2019-02-18T10:21:06.496Z,99367.78
2019-02-18T10:23:42.690Z,99364.09
2019-02-18T10:26:22.081Z,99365.11
2019-02-18T10:28:57.992Z,99362.98
2019-02-18T10:31:31.437Z,99361.35
2019-02-18T10:34:05.950Z,99353.90
2019-02-18T10:36:38.861Z,99350.97
2019-02-18T10:39:10.985Z,99343.52
2019-02-18T10:41:45.350Z,99347.23
2019-02-18T10:44:19.803Z,99340.69
2019-02-18T10:46:55.421Z,99338.37
2019-02-18T10:49:31.662Z,99343.38
2019-02-18T10:52:07.301Z,99336.42
2019-02-18T10:54:42.644Z,99334.14
2019-02-18T10:57:20.545Z,99329.19
2019-02-18T10:59:59.200Z,99323.47
2019-02-18T11:02:35.548Z,99321.02
2019-02-18T11:05:10.730Z,99321.84
2019-02-18T11:07:47.125Z,99325.09
2019-02-18T11:10:25.366Z,99309.02
2019-02-18T11:13:02.852Z,99311.23
2019-02-18T11:15:40.462Z,99301.95
2019-02-18T11:18:15.867Z,99300.44
2019-02-18T11:20:51.262Z,99292.67
2019-02-18T11:23:25.731Z,99291.69
2019-02-18T11:25:59.094Z,99291.14
2019-02-18T11:28:44.165Z,99281.02
2019-02-18T11:31:17.608Z,99283.13
2019-02-18T11:33:55.696Z,99283.73
2019-02-18T11:36:33.612Z,99278.28
2019-02-18T11:39:13.804Z,99275.63
2019-02-18T11:41:54.896Z,99277.03
2019-02-18T11:44:31.811Z,99282.05
2019-02-18T11:47:05.823Z,99270.75
2019-02-18T11:49:40.589Z,99270.81
2019-02-18T11:52:14.184Z,99259.08
2019-02-18T11:54:48.921Z,99255.95
2019-02-18T11:57:21.121Z,99255.52
2019-02-18T11:59:53.230Z,99249.23
2019-02-18T12:02:25.314Z,99245.44
2019-02-18T12:04:57.985Z,99248.95
2019-02-18T12:07:38.775Z,99243.61
2019-02-18T12:10:21.874Z,99235.83
2019-02-18T12:13:44.987Z,99242.50
2019-02-18T12:16:26.881Z,99243.05
2019-02-18T12:19:10.393Z,99229.45
2019-02-18T12:21:50.621Z,99226.05
2019-02-18T12:24:31.997Z,99226.71
2019-02-18T12:27:25.527Z,99221.59
2019-02-18T12:30:14.324Z,99220.73
2019-02-18T12:32:55.140Z,99220.91
2019-02-18T12:35:37.069Z,99216.67
2019-02-18T12:38:35.838Z,99211.97
2019-02-18T12:41:19.570Z,99202.54
2019-02-18T12:44:08.135Z,99199.49
2019-02-18T12:46:43.557Z,99194.57
2019-02-18T12:49:15.531Z,99191.09
2019-02-18T12:51:48.138Z,99194.83
2019-02-18T12:54:26.926Z,99184.60
2019-02-18T12:56:59.140Z,99181.77
2019-02-18T12:59:35.742Z,99180.53
2019-02-18T13:02:22.271Z,99168.89
2019-02-18T13:05:14.953Z,99177.17
2019-02-18T13:07:47.799Z,99170.98
2019-02-18T13:10:23.713Z,99166.52
2019-02-18T13:13:02.983Z,99163.77
2019-02-18T13:15:40.652Z,99159.69
2019-02-18T13:18:18.681Z,99160.25
2019-02-18T13:20:56.104Z,99155.91
2019-02-18T13:23:30.886Z,99149.91
2019-02-18T13:26:06.882Z,99157.47
2019-02-18T13:28:43.362Z,99159.11
2019-02-18T13:31:22.026Z,99150.20
2019-02-18T13:33:59.664Z,99150.75
2019-02-18T13:36:37.152Z,99149.14
2019-02-18T13:39:13.849Z,99144.77
2019-02-18T13:41:47.483Z,99145.70
2019-02-18T13:44:24.639Z,99145.38
2019-02-18T13:47:01.414Z,99142.92
2019-02-18T13:49:42.041Z,99151.38
2019-02-18T13:52:20.346Z,99141.67
2019-02-18T13:54:58.699Z,99142.45
2019-02-18T13:57:32.490Z,99146.02
2019-02-18T14:00:32.903Z,99141.78
2019-02-18T14:03:14.201Z,99146.13
2019-02-18T14:06:16.393Z,99138.69
2019-02-18T14:08:59.284Z,99135.16
2019-02-18T14:11:52.221Z,99128.55
2019-02-18T14:14:34.073Z,99135.81
2019-02-18T14:17:18.551Z,99130.85
2019-02-18T14:19:54.244Z,99128.17
2019-02-18T14:22:25.594Z,99136.90
2019-02-18T14:24:56.372Z,99134.59
2019-02-18T14:27:26.824Z,99135.05
2019-02-18T14:29:57.250Z,99132.13
2019-02-18T14:32:28.209Z,99126.99
2019-02-18T14:34:59.431Z,99131.00
2019-02-18T14:37:30.181Z,99126.17
2019-02-18T14:40:01.114Z,99130.77
2019-02-18T14:42:39.194Z,99121.77
2019-02-18T14:45:17.041Z,99122.30
2019-02-18T14:47:55.622Z,99122.17
2019-02-18T14:50:29.013Z,99119.19
2019-02-18T14:53:00.443Z,99121.03
2019-02-18T14:55:31.132Z,99118.27
2019-02-18T14:58:09.870Z,99127.17
2019-02-18T15:00:42.119Z,99120.67
2019-02-18T15:03:12.486Z,99116.33
2019-02-18T15:05:43.057Z,99114.08
2019-02-18T15:08:13.471Z,99121.27
2019-02-18T15:10:43.761Z,99115.83
2019-02-18T15:13:14.089Z,99114.08
2019-02-18T15:15:46.327Z,99111.92
2019-02-18T15:18:20.548Z,99114.35
2019-02-18T15:20:54.674Z,99105.67
2019-02-18T15:23:29.451Z,99105.69
2019-02-18T15:26:04.509Z,99102.76
2019-02-18T15:28:39.143Z,99104.77
2019-02-18T15:31:15.214Z,99102.08
2019-02-18T15:33:53.180Z,99095.13
2019-02-18T15:36:28.437Z,99095.56
2019-02-18T15:39:05.970Z,99084.52
2019-02-18T15:41:42.161Z,99088.38
2019-02-18T15:44:12.955Z,99087.25
2019-02-18T15:46:47.901Z,99081.66
2019-02-18T15:49:22.915Z,99076.41
2019-02-18T15:52:00.325Z,99082.96
2019-02-18T15:54:38.028Z,99086.13
2019-02-18T15:57:14.006Z,99078.86
2019-02-18T15:59:49.805Z,99082.77
2019-02-18T16:02:27.087Z,99083.95
2019-02-18T16:05:06.716Z,99082.71
2019-02-18T16:07:42.310Z,99073.99
2019-02-18T16:10:20.203Z,99078.91
2019-02-18T16:12:56.860Z,99079.78
2019-02-18T16:15:33.508Z,99075.99
2019-02-18T16:18:10.171Z,99069.57
2019-02-18T16:20:42.426Z,99074.02
2019-02-18T16:23:13.541Z,99067.25
2019-02-18T16:25:44.122Z,99073.18
2019-02-18T16:28:14.347Z,99067.77
2019-02-18T16:30:44.573Z,99074.89
2019-02-18T16:33:16.485Z,99072.90
2019-02-18T16:35:46.948Z,99071.10
2019-02-18T16:38:17.200Z,99076.64
2019-02-18T16:40:47.440Z,99074.88
2019-02-18T16:43:17.669Z,99072.81
2019-02-18T16:45:48.028Z,99071.45
2019-02-18T16:48:18.669Z,99062.32
2019-02-18T16:50:48.891Z,99064.20
2019-02-18T16:53:19.495Z,99065.70
2019-02-18T16:55:49.717Z,99069.75
2019-02-18T16:58:20.055Z,99072.38
2019-02-18T17:00:57.278Z,99075.67
2019-02-18T17:03:22.634Z,99087.11
2019-02-18T17:05:53.126Z,99084.55
2019-02-18T17:08:23.507Z,99081.70
2019-02-18T17:10:53.716Z,99079.09
2019-02-18T17:13:23.986Z,99086.29
2019-02-18T17:15:54.242Z,99086.59
2019-02-18T17:18:25.028Z,99080.26
2019-02-18T17:20:55.929Z,99079.52
2019-02-18T17:23:26.196Z,99074.99
2019-02-18T17:25:56.452Z,99066.83
2019-02-18T17:28:26.998Z,99067.93
2019-02-18T17:30:57.237Z,99066.67
2019-02-18T17:33:27.472Z,99064.56
2019-02-18T17:35:57.749Z,99077.63
2019-02-18T17:38:28.028Z,99074.19
2019-02-18T17:40:58.303Z,99075.55
2019-02-18T17:43:28.596Z,99068.42
2019-02-18T17:45:58.919Z,99069.77
2019-02-18T17:48:29.568Z,99068.02
2019-02-18T17:51:01.954Z,99070.58
2019-02-18T17:53:32.378Z,99065.13
2019-02-18T17:56:03.721Z,99069.08
2019-02-18T17:58:34.036Z,99066.69
2019-02-18T18:01:04.836Z,99071.53
2019-02-18T18:03:35.130Z,99065.99
2019-02-18T18:06:05.499Z,99069.98
2019-02-18T18:08:35.772Z,99063.89
2019-02-18T18:11:06.078Z,99062.87
2019-02-18T18:13:36.354Z,99064.75
2019-02-18T18:16:07.026Z,99064.81
2019-02-18T18:18:37.623Z,99071.16
2019-02-18T18:21:07.937Z,99073.31
2019-02-18T18:23:38.592Z,99075.52
2019-02-18T18:26:08.892Z,99068.31
2019-02-18T18:28:39.175Z,99065.45
2019-02-18T18:31:10.693Z,99072.59
2019-02-18T18:33:41.587Z,99072.38
2019-02-18T18:36:12.062Z,99072.38
2019-02-18T18:38:42.464Z,99062.88
2019-02-18T18:41:12.763Z,99065.55
2019-02-18T18:43:43.127Z,99064.75
2019-02-18T18:46:13.431Z,99065.84
2019-02-18T18:48:46.002Z,99069.29
2019-02-18T18:51:16.313Z,99070.67
2019-02-18T18:53:47.913Z,99069.36
2019-02-18T18:56:18.230Z,99066.71
2019-02-18T18:58:48.620Z,99069.64
2019-02-18T19:01:18.914Z,99065.67
2019-02-18T19:03:49.282Z,99062.78
2019-02-18T19:06:19.532Z,99058.27
2019-02-18T19:08:49.959Z,99060.66
2019-02-18T19:11:20.494Z,99061.19
2019-02-18T19:13:50.766Z,99059.34
2019-02-18T19:16:21.101Z,99057.22
2019-02-18T19:18:51.641Z,99060.42
2019-02-18T19:21:22.264Z,99053.81
2019-02-18T19:23:52.487Z,99057.25
2019-02-18T19:26:22.798Z,99057.50
2019-02-18T19:28:53.176Z,99060.94
2019-02-18T19:31:23.426Z,99056.17
2019-02-18T19:33:53.695Z,99060.66
2019-02-18T19:36:23.929Z,99059.06
2019-02-18T19:38:54.299Z,99055.09
2019-02-18T19:41:24.640Z,99054.84
2019-02-18T19:43:55.036Z,99058.54
2019-02-18T19:46:25.294Z,99060.66
2019-02-18T19:48:55.568Z,99051.16
2019-02-18T19:51:25.775Z,99055.13
2019-02-18T19:54:05.115Z,99055.41
2019-02-18T19:56:36.965Z,99048.27
2019-02-18T19:59:10.498Z,99051.16
2019-02-18T20:01:45.324Z,99049.05
2019-02-18T20:04:33.009Z,99045.59
2019-02-18T20:07:04.242Z,99046.95
2019-02-18T20:09:36.531Z,99041.14
2019-02-18T20:12:06.841Z,99047.73
2019-02-18T20:14:40.111Z,99043.50
2019-02-18T20:17:10.472Z,99045.90
2019-02-18T20:19:40.864Z,99043.27
2019-02-18T20:22:11.148Z,99039.28
2019-02-18T20:24:46.426Z,99040.08
2019-02-18T20:27:16.718Z,99039.55
2019-02-18T20:29:58.308Z,99040.61
2019-02-18T20:32:31.070Z,99038.52
2019-02-18T20:35:01.445Z,99037.97
2019-02-18T20:37:31.687Z,99033.73
2019-02-18T20:40:02.067Z,99036.12
2019-02-18T20:42:32.532Z,99024.75
2019-02-18T20:45:02.950Z,99034.02
2019-02-18T20:47:33.211Z,99029.27
2019-02-18T20:50:03.515Z,99026.59
2019-02-18T20:52:33.861Z,99016.04
2019-02-18T20:55:04.158Z,99018.15
2019-02-18T20:57:34.777Z,99018.67
2019-02-18T21:00:07.147Z,99018.66
2019-02-18T21:02:37.459Z,99013.14
2019-02-18T21:05:08.173Z,99009.09
2019-02-18T21:07:38.444Z,99012.34
2019-02-18T21:10:09.696Z,99013.99
2019-02-18T21:12:40.035Z,99008.00
2019-02-18T21:15:10.398Z,99004.33
2019-02-18T21:17:40.752Z,99009.93
2019-02-18T21:20:14.847Z,99006.26
2019-02-18T21:22:45.127Z,99008.37
2019-02-18T21:25:15.439Z,99001.22
2019-02-18T21:27:45.824Z,99003.10
2019-02-18T21:30:17.335Z,99003.63
2019-02-18T21:32:47.627Z,98997.81
2019-02-18T21:35:17.908Z,99000.45
2019-02-18T21:37:48.479Z,98998.89
2019-02-18T21:40:18.926Z,98996.25
2019-02-18T21:42:49.241Z,98999.41
2019-02-18T21:45:19.494Z,98997.80
2019-02-18T21:47:49.847Z,98990.95
2019-02-18T21:50:20.582Z,98995.18
2019-02-18T21:52:50.862Z,98988.31
2019-02-18T21:55:21.245Z,98994.89
2019-02-18T21:57:51.675Z,98998.30
2019-02-18T22:00:23.375Z,98991.68
2019-02-18T22:02:53.654Z,98994.81
2019-02-18T22:05:23.954Z,98992.17
2019-02-18T22:07:54.293Z,98995.60
2019-02-18T22:10:24.529Z,98991.91
2019-02-18T22:12:54.825Z,98987.91
2019-02-18T22:15:25.160Z,98985.48
2019-02-18T22:17:56.130Z,98989.23
2019-02-18T22:20:26.797Z,98987.11
2019-02-18T22:22:57.121Z,98986.03
2019-02-18T22:25:27.377Z,98986.82
2019-02-18T22:27:57.611Z,98987.52
2019-02-18T22:30:28.211Z,98985.44
2019-02-18T22:32:58.851Z,98982.09
2019-02-18T22:35:29.213Z,98986.86
2019-02-18T22:38:00.497Z,98986.79
2019-02-18T22:40:30.794Z,98982.61
2019-02-18T22:43:01.159Z,98972.75
2019-02-18T22:45:31.424Z,98975.16
2019-02-18T22:48:01.979Z,98975.21
2019-02-18T22:50:32.379Z,98976.48
2019-02-18T22:53:02.672Z,98971.48
2019-02-18T22:55:33.278Z,98980.63
2019-02-18T22:58:03.558Z,98970.68
2019-02-18T23:00:52.095Z,98968.44
2019-02-18T23:03:23.116Z,98978.95
2019-02-18T23:05:53.579Z,98974.02
2019-02-18T23:08:23.874Z,98978.20
2019-02-18T23:10:54.266Z,98980.39
2019-02-18T23:13:24.829Z,98979.09
2019-02-18T23:15:56.777Z,98973.27
2019-02-18T23:18:28.371Z,98979.86
2019-02-18T23:20:58.932Z,98974.88
2019-02-18T23:23:29.609Z,98969.28
2019-02-18T23:26:00.379Z,98972.02
2019-02-18T23:28:30.709Z,98969.51
2019-02-18T23:31:01.008Z,98968.11
2019-02-18T23:33:31.429Z,98966.34
2019-02-18T23:36:01.688Z,98969.50
2019-02-18T23:38:32.023Z,98971.41
2019-02-18T23:41:02.840Z,98975.20
2019-02-18T23:43:33.721Z,98970.69
2019-02-18T23:46:05.577Z,98962.75
2019-02-18T23:48:35.978Z,98964.91
2019-02-18T23:51:06.266Z,98966.97
2019-02-18T23:53:36.534Z,98967.47
2019-02-18T23:56:07.086Z,98967.23
2019-02-18T23:58:39.653Z,98962.34
